Time;durP1;ratioP1;P1;durP2;ratioP2;P2;SDS_P1;SDS_P2;PMS_P1;PMS_P2;Temp;Humidity;BMP_temperature;BMP_pressure;BME280_temperature;BME280_humidity;BME280_pressure;Samples;Min_cycle;Max_cycle;Signal;HPM_P1;HPM_P2
2023/03/26 00:01:20;;;;;;;15.02;2.95;;;10.20;99.90;;;;;;4990476;28;99109;-73
2023/03/26 00:03:52;;;;;;;13.52;2.97;;;10.20;99.90;;;;;;4974820;28;99360;-73
2023/03/26 00:06:21;;;;;;;12.80;2.90;;;10.20;99.90;;;;;;4989997;28;101584;-73
2023/03/26 00:08:49;;;;;;;12.25;3.13;;;10.20;99.90;;;;;;4973230;28;98575;-73
2023/03/26 00:11:19;;;;;;;13.60;2.95;;;10.20;99.90;;;;;;4990573;28;98709;-74
2023/03/26 00:13:46;;;;;;;10.77;2.97;;;10.20;99.90;;;;;;4989738;28;100295;-74
2023/03/26 00:16:17;;;;;;;10.95;3.35;;;10.10;99.90;;;;;;4973587;28;99041;-74
2023/03/26 00:18:46;;;;;;;10.75;2.80;;;10.10;99.90;;;;;;4974221;28;99313;-74
2023/03/26 00:21:16;;;;;;;10.85;2.60;;;9.90;99.90;;;;;;4990184;28;98595;-73
2023/03/26 00:23:44;;;;;;;14.35;2.83;;;9.90;99.90;;;;;;4974074;28;99153;-73
2023/03/26 00:26:11;;;;;;;16.13;2.88;;;9.80;99.90;;;;;;4989911;28;98614;-73
2023/03/26 00:28:40;;;;;;;15.20;2.95;;;9.70;99.90;;;;;;4975035;28;98513;-73
2023/03/26 00:31:11;;;;;;;16.77;3.03;;;9.70;99.90;;;;;;4974663;28;98509;-73
2023/03/26 00:33:40;;;;;;;12.85;3.08;;;9.70;99.90;;;;;;4974582;28;99220;-73
2023/03/26 00:36:13;;;;;;;14.63;2.83;;;9.70;99.90;;;;;;4989581;28;101516;-73
2023/03/26 00:38:41;;;;;;;12.02;2.53;;;9.60;99.90;;;;;;4990233;28;98581;-73
2023/03/26 00:41:21;;;;;;;12.00;3.65;;;9.50;99.90;;;;;;4989482;28;98554;-73
2023/03/26 00:43:52;;;;;;;9.60;2.70;;;9.50;99.90;;;;;;4974018;28;100152;-73
2023/03/26 00:46:19;;;;;;;11.45;2.75;;;9.50;99.90;;;;;;4989497;28;102703;-73
2023/03/26 00:48:46;;;;;;;11.55;2.97;;;9.50;99.90;;;;;;4989786;28;98598;-73
2023/03/26 00:51:15;;;;;;;14.30;2.75;;;9.50;99.90;;;;;;4989766;28;98545;-73
2023/03/26 00:53:45;;;;;;;10.95;2.97;;;9.60;99.90;;;;;;4974169;28;99258;-73
2023/03/26 00:56:12;;;;;;;11.65;3.25;;;9.60;99.90;;;;;;4972723;28;98890;-73
2023/03/26 00:58:39;;;;;;;12.98;2.67;;;9.60;99.90;;;;;;4973586;28;98944;-73
2023/03/26 01:01:12;;;;;;;13.60;3.67;;;9.60;99.90;;;;;;4974423;28;97800;-73
2023/03/26 01:03:41;;;;;;;16.95;2.78;;;9.70;99.90;;;;;;4974295;28;99311;-73
2023/03/26 01:06:26;;;;;;;8.85;2.53;;;9.70;99.90;;;;;;4974182;28;99153;-73
2023/03/26 01:08:58;;;;;;;11.93;2.80;;;9.70;99.90;;;;;;4974036;28;99185;-73
2023/03/26 01:11:29;;;;;;;17.02;3.13;;;9.70;99.90;;;;;;4989550;28;98904;-73
2023/03/26 01:14:15;;;;;;;10.10;2.60;;;9.70;99.90;;;;;;4973639;28;99339;-74
2023/03/26 01:16:53;;;;;;;13.07;2.40;;;9.70;99.90;;;;;;4974090;28;99001;-74
2023/03/26 01:19:29;;;;;;;10.07;2.97;;;9.70;99.90;;;;;;4974516;28;98614;-73
2023/03/26 01:21:57;;;;;;;12.95;2.50;;;9.70;99.90;;;;;;4989276;28;98475;-73
2023/03/26 01:24:25;;;;;;;11.18;2.70;;;9.70;99.90;;;;;;4971969;28;101670;-73
2023/03/26 01:27:08;;;;;;;13.60;2.85;;;9.60;99.90;;;;;;4974247;28;98849;-73
2023/03/26 01:29:57;;;;;;;12.47;3.50;;;9.60;99.90;;;;;;4988515;28;98763;-73
2023/03/26 01:32:39;;;;;;;15.07;2.85;;;9.60;99.90;;;;;;4973841;28;98515;-73
2023/03/26 01:35:14;;;;;;;11.65;2.78;;;9.60;99.90;;;;;;4972764;28;100098;-73
2023/03/26 01:37:57;;;;;;;8.98;2.00;;;9.50;99.90;;;;;;4973989;28;99547;-73
2023/03/26 01:40:41;;;;;;;7.80;2.17;;;9.50;99.90;;;;;;4973994;28;98475;-73
2023/03/26 01:43:17;;;;;;;16.00;2.80;;;9.40;99.90;;;;;;4973806;28;98423;-73
2023/03/26 01:45:46;;;;;;;9.43;2.80;;;9.30;99.90;;;;;;4973536;28;99363;-73
2023/03/26 01:48:42;;;;;;;13.13;2.45;;;9.20;99.90;;;;;;4973036;28;99188;-73
2023/03/26 01:51:10;;;;;;;9.32;2.42;;;9.20;99.90;;;;;;4973322;28;98550;-73
2023/03/26 01:53:42;;;;;;;10.70;2.67;;;9.10;99.90;;;;;;4956558;28;97936;-73
2023/03/26 01:56:32;;;;;;;17.95;2.78;;;9.20;99.90;;;;;;4973040;28;99388;-73
2023/03/26 01:59:28;;;;;;;11.43;2.60;;;9.30;99.90;;;;;;4971664;28;101749;-73
2023/03/26 02:02:14;;;;;;;8.98;2.45;;;9.30;99.90;;;;;;4988210;28;99215;-73
2023/03/26 02:04:52;;;;;;;11.07;2.42;;;9.30;99.90;;;;;;4988544;28;98642;-73
2023/03/26 02:07:36;;;;;;;9.32;2.50;;;9.30;99.90;;;;;;4971738;28;101985;-73
2023/03/26 02:10:26;;;;;;;7.80;3.08;;;9.40;99.90;;;;;;4971225;28;101534;-73
2023/03/26 02:12:54;;;;;;;8.82;2.10;;;9.40;99.90;;;;;;4973732;28;98462;-73
2023/03/26 02:15:21;;;;;;;13.65;2.50;;;9.40;99.90;;;;;;4973074;28;99125;-73
2023/03/26 02:17:51;;;;;;;6.93;2.47;;;9.40;99.90;;;;;;4988062;28;102357;-73
2023/03/26 02:20:19;;;;;;;9.93;2.80;;;9.40;99.90;;;;;;4971508;28;99953;-73
2023/03/26 02:22:47;;;;;;;12.68;2.85;;;9.50;99.90;;;;;;4988580;28;98668;-73
2023/03/26 02:25:18;;;;;;;9.38;2.78;;;9.50;99.90;;;;;;4971475;28;99291;-73
2023/03/26 02:27:48;;;;;;;6.32;2.20;;;9.50;99.90;;;;;;4987381;28;102298;-73
2023/03/26 02:30:19;;;;;;;8.50;2.28;;;9.60;99.90;;;;;;4987809;28;101717;-73
2023/03/26 02:32:51;;;;;;;14.13;2.70;;;9.60;99.90;;;;;;4971402;28;98921;-73
2023/03/26 02:35:20;;;;;;;10.05;2.53;;;9.60;99.90;;;;;;4988104;28;99082;-73
2023/03/26 02:37:50;;;;;;;9.25;2.50;;;9.60;99.90;;;;;;4987281;28;101427;-73
2023/03/26 02:40:21;;;;;;;12.25;2.53;;;9.60;99.90;;;;;;4970647;28;101687;-73
2023/03/26 02:42:49;;;;;;;9.95;2.38;;;9.60;99.90;;;;;;4988363;28;98585;-73
2023/03/26 02:45:16;;;;;;;9.82;2.75;;;9.60;99.90;;;;;;4973132;28;97796;-73
2023/03/26 02:48:06;;;;;;;12.27;2.95;;;9.60;99.90;;;;;;4938424;28;99242;-73
2023/03/26 02:50:40;;;;;;;10.33;2.67;;;9.60;99.90;;;;;;4971380;28;98775;-73
2023/03/26 02:53:30;;;;;;;14.15;2.55;;;9.60;99.90;;;;;;4950705;28;99433;-73
2023/03/26 02:56:27;;;;;;;10.77;2.13;;;9.60;99.90;;;;;;4983667;28;98630;-73
2023/03/26 02:59:13;;;;;;;11.73;2.75;;;9.60;99.90;;;;;;4987413;28;101555;-73
2023/03/26 03:01:43;;;;;;;8.30;2.50;;;9.60;99.90;;;;;;4987545;28;101397;-73
2023/03/26 03:04:12;;;;;;;6.57;2.33;;;9.60;99.90;;;;;;4971048;28;98550;-73
2023/03/26 03:06:40;;;;;;;13.98;2.88;;;9.60;99.90;;;;;;4987700;28;98546;-73
2023/03/26 03:09:07;;;;;;;14.93;2.67;;;9.50;99.90;;;;;;4987327;28;101827;-73
2023/03/26 03:11:35;;;;;;;14.15;2.72;;;9.50;99.90;;;;;;4972843;28;98789;-73
2023/03/26 03:14:03;;;;;;;16.40;3.30;;;9.40;99.90;;;;;;4987612;28;98618;-73
2023/03/26 03:16:31;;;;;;;14.05;3.03;;;9.40;99.90;;;;;;4971176;28;98553;-73
2023/03/26 03:19:07;;;;;;;12.27;2.58;;;9.40;99.90;;;;;;4970579;28;101021;-73
2023/03/26 03:21:36;;;;;;;15.63;3.17;;;9.30;99.90;;;;;;4971212;28;102211;-73
2023/03/26 03:24:06;;;;;;;10.75;2.67;;;9.30;99.90;;;;;;4954923;28;98509;-73
2023/03/26 03:26:41;;;;;;;8.50;2.92;;;9.30;99.90;;;;;;4987645;28;98513;-73
2023/03/26 03:29:28;;;;;;;12.15;2.60;;;9.30;99.90;;;;;;4973567;28;100887;-73
2023/03/26 03:31:59;;;;;;;12.15;2.67;;;9.30;99.90;;;;;;4987243;28;100110;-74
2023/03/26 03:34:41;;;;;;;9.05;2.38;;;9.20;99.90;;;;;;4987690;28;99134;-73
2023/03/26 03:37:08;;;;;;;9.50;2.22;;;9.20;99.90;;;;;;4987792;28;97797;-73
2023/03/26 03:39:44;;;;;;;13.60;2.90;;;9.20;99.90;;;;;;4987269;28;101515;-73
2023/03/26 03:42:14;;;;;;;11.80;2.38;;;9.20;99.90;;;;;;4970235;28;101503;-73
2023/03/26 03:44:41;;;;;;;12.65;2.20;;;9.20;99.90;;;;;;4970754;28;99247;-73
2023/03/26 03:47:21;;;;;;;11.45;2.92;;;9.20;99.90;;;;;;4985346;28;98554;-73
2023/03/26 03:49:49;;;;;;;14.38;3.05;;;9.20;99.90;;;;;;4986961;28;101770;-73
2023/03/26 03:52:17;;;;;;;10.85;3.15;;;9.20;99.90;;;;;;4986741;28;101417;-73
2023/03/26 03:54:44;;;;;;;11.50;2.80;;;9.20;99.90;;;;;;4990793;28;98508;-73
2023/03/26 03:57:21;;;;;;;8.63;2.95;;;9.20;99.90;;;;;;4988966;28;98582;-73
2023/03/26 03:59:57;;;;;;;10.32;2.95;;;9.20;99.90;;;;;;4973824;28;102211;-73
2023/03/26 04:02:29;;;;;;;13.50;3.03;;;9.30;99.90;;;;;;4990186;28;101347;-73
2023/03/26 04:05:01;;;;;;;9.15;2.67;;;9.30;99.90;;;;;;4989956;28;98601;-73
2023/03/26 04:07:31;;;;;;;9.57;2.97;;;9.30;99.90;;;;;;4990214;28;98674;-73
2023/03/26 04:10:04;;;;;;;9.95;2.58;;;9.30;99.90;;;;;;4973502;28;99889;-73
2023/03/26 04:13:00;;;;;;;9.00;3.00;;;9.20;99.90;;;;;;4973061;28;100531;-73
2023/03/26 04:15:48;;;;;;;8.50;2.72;;;9.20;99.90;;;;;;4990655;28;98592;-73
2023/03/26 04:18:15;;;;;;;9.23;2.60;;;9.20;99.90;;;;;;4975247;28;99168;-73
2023/03/26 04:20:45;;;;;;;9.68;3.13;;;9.20;99.90;;;;;;4973216;28;101674;-73
2023/03/26 04:23:18;;;;;;;10.43;3.23;;;9.20;99.90;;;;;;4989866;28;101467;-73
2023/03/26 04:25:52;;;;;;;12.20;3.20;;;9.20;99.90;;;;;;4973483;28;99153;-73
2023/03/26 04:28:45;;;;;;;14.10;2.65;;;9.20;99.90;;;;;;4990359;28;97876;-73
2023/03/26 04:31:23;;;;;;;8.80;2.40;;;9.20;99.90;;;;;;4989254;28;101533;-73
2023/03/26 04:33:55;;;;;;;10.90;2.67;;;9.10;99.90;;;;;;4989602;28;101554;-73
2023/03/26 04:36:27;;;;;;;11.65;3.10;;;9.00;99.90;;;;;;4973057;28;99269;-73
2023/03/26 04:38:57;;;;;;;13.18;2.50;;;8.90;99.90;;;;;;4989861;28;98602;-73
2023/03/26 04:41:44;;;;;;;9.52;2.75;;;8.80;99.90;;;;;;4974019;28;100032;-73
2023/03/26 04:44:21;;;;;;;10.45;2.60;;;8.70;99.90;;;;;;4989398;28;102232;-73
2023/03/26 04:47:01;;;;;;;13.80;2.75;;;8.60;99.90;;;;;;4988259;28;98586;-73
2023/03/26 04:49:37;;;;;;;10.43;2.25;;;8.50;99.90;;;;;;4958320;28;98611;-73
2023/03/26 04:52:04;;;;;;;11.20;1.95;;;8.50;99.90;;;;;;4972843;28;101580;-73
2023/03/26 04:54:58;;;;;;;11.20;2.80;;;8.40;99.90;;;;;;4965270;28;98879;-73
2023/03/26 04:57:36;;;;;;;13.10;2.65;;;8.30;99.90;;;;;;4973048;28;98700;-73
2023/03/26 05:00:15;;;;;;;7.45;2.30;;;8.30;99.90;;;;;;4973422;28;98563;-73
2023/03/26 05:02:49;;;;;;;14.80;2.67;;;8.40;99.90;;;;;;4972259;28;102486;-73
2023/03/26 05:05:17;;;;;;;13.77;3.00;;;8.40;99.90;;;;;;4988844;28;102201;-73
2023/03/26 05:07:44;;;;;;;13.73;2.80;;;8.40;99.90;;;;;;4972911;28;98513;-73
2023/03/26 05:10:15;;;;;;;11.88;3.00;;;8.40;99.90;;;;;;4989694;28;98600;-73
2023/03/26 05:12:48;;;;;;;11.25;2.80;;;8.40;99.90;;;;;;4988942;28;101697;-73
2023/03/26 05:15:22;;;;;;;9.98;2.42;;;8.30;99.90;;;;;;4972664;28;101349;-73
2023/03/26 05:17:50;;;;;;;8.50;2.65;;;8.30;99.90;;;;;;4973902;28;98514;-73
2023/03/26 05:20:26;;;;;;;14.68;2.72;;;8.30;99.90;;;;;;4989164;28;97810;-73
2023/03/26 05:22:54;;;;;;;8.25;2.35;;;8.30;99.90;;;;;;4988823;28;101839;-73
2023/03/26 05:25:29;;;;;;;8.77;2.50;;;8.30;99.90;;;;;;4971852;28;101635;-73
2023/03/26 05:27:58;;;;;;;7.22;2.17;;;8.30;99.90;;;;;;4988668;28;99653;-73
2023/03/26 05:30:31;;;;;;;7.72;2.40;;;8.30;99.90;;;;;;4972515;28;99043;-73
2023/03/26 05:33:01;;;;;;;11.52;2.35;;;8.30;99.90;;;;;;4988911;28;101778;-73
2023/03/26 05:35:34;;;;;;;;;;;8.30;99.90;;;;;;4972615;28;101619;-73
2023/03/26 05:38:01;;;;;;;9.02;2.40;;;8.20;99.90;;;;;;4990401;28;98672;-73
2023/03/26 05:40:28;;;;;;;8.93;2.40;;;8.20;99.90;;;;;;4956063;28;98765;-73
2023/03/26 05:42:58;;;;;;;12.27;2.67;;;8.20;99.90;;;;;;4971949;28;99399;-73
2023/03/26 05:45:34;;;;;;;9.18;2.80;;;8.30;99.90;;;;;;4972504;28;101299;-73
2023/03/26 05:48:17;;;;;;;11.02;2.67;;;8.30;99.90;;;;;;4989104;28;98994;-73
2023/03/26 05:50:47;;;;;;;6.85;2.30;;;8.40;99.90;;;;;;4972351;28;98598;-73
2023/03/26 05:53:14;;;;;;;9.43;2.25;;;8.40;99.90;;;;;;4955439;28;102904;-73
2023/03/26 05:56:00;;;;;;;8.13;2.40;;;8.50;99.90;;;;;;4972012;28;99225;-73
2023/03/26 05:58:46;;;;;;;8.57;3.22;;;8.50;99.90;;;;;;4985795;28;98549;-73
2023/03/26 06:01:43;;;;;;;10.30;2.55;;;8.60;99.90;;;;;;4956740;28;98532;-73
2023/03/26 06:04:16;;;;;;;9.60;2.60;;;8.60;99.90;;;;;;4971499;28;99251;-73
2023/03/26 06:06:55;;;;;;;12.45;3.70;;;8.70;99.90;;;;;;4957327;28;101073;-73
2023/03/26 06:09:22;;;;;;;10.15;2.65;;;8.80;99.90;;;;;;4988893;28;98971;-73
2023/03/26 06:11:49;;;;;;;14.23;3.03;;;8.90;99.90;;;;;;4972043;28;98317;-73
2023/03/26 06:14:16;;;;;;;11.25;2.90;;;8.90;99.90;;;;;;4973030;28;99309;-73
2023/03/26 06:17:03;;;;;;;11.90;2.63;;;9.00;99.90;;;;;;4984797;28;100385;-73
2023/03/26 06:19:48;;;;;;;9.60;3.10;;;9.10;99.90;;;;;;4971573;28;100010;-73
2023/03/26 06:22:23;;;;;;;8.15;2.67;;;9.20;99.90;;;;;;4956747;28;98548;-73
2023/03/26 06:25:28;;;;;;;9.63;2.72;;;9.20;99.90;;;;;;4911503;28;99229;-73
2023/03/26 06:28:08;;;;;;;7.88;2.70;;;9.30;99.90;;;;;;4912019;28;101817;-73
2023/03/26 06:31:11;;;;;;;10.40;3.25;;;9.30;99.90;;;;;;4953333;28;98819;-73
2023/03/26 06:33:50;;;;;;;14.90;3.42;;;9.40;99.90;;;;;;4971516;28;98529;-73
2023/03/26 06:36:17;;;;;;;13.98;3.30;;;9.40;99.90;;;;;;4971365;28;101537;-73
2023/03/26 06:38:47;;;;;;;12.95;2.60;;;9.50;99.90;;;;;;4971526;28;100458;-73
2023/03/26 06:41:14;;;;;;;12.50;3.08;;;9.60;99.90;;;;;;4971751;28;98538;-73
2023/03/26 06:44:19;;;;;;;7.65;2.78;;;9.60;99.90;;;;;;4962163;28;99124;-73
2023/03/26 06:47:05;;;;;;;12.70;2.15;;;9.70;99.90;;;;;;4984932;28;99766;-73
2023/03/26 06:49:54;;;;;;;13.75;2.67;;;9.70;99.90;;;;;;4984411;28;100773;-73
2023/03/26 06:52:38;;;;;;;16.13;2.50;;;9.60;99.90;;;;;;4985869;28;98707;-73
2023/03/26 06:55:24;;;;;;;16.20;2.55;;;9.50;99.90;;;;;;4971568;28;98506;-73
2023/03/26 06:58:15;;;;;;;8.30;2.40;;;9.50;99.90;;;;;;4966134;28;99109;-73
2023/03/26 07:01:06;;;;;;;18.88;3.92;;;9.50;99.90;;;;;;4956001;28;98863;-73
2023/03/26 07:03:51;;;;;;;11.32;2.70;;;9.50;99.90;;;;;;4972279;28;98598;-73
2023/03/26 07:06:36;;;;;;;11.18;2.80;;;9.60;99.90;;;;;;4983937;28;97933;-73
2023/03/26 07:09:22;;;;;;;13.40;2.45;;;9.80;99.90;;;;;;4971222;28;99502;-73
2023/03/26 07:12:08;;;;;;;11.18;2.75;;;9.80;99.90;;;;;;4972399;28;99090;-74
2023/03/26 07:14:47;;;;;;;14.30;2.67;;;9.90;99.90;;;;;;4969902;28;99425;-73
2023/03/26 07:17:32;;;;;;;9.88;2.80;;;10.00;99.90;;;;;;4971525;28;98513;-73
2023/03/26 07:20:06;;;;;;;13.20;2.58;;;10.00;99.90;;;;;;4970557;28;101535;-73
2023/03/26 07:22:34;;;;;;;16.65;3.25;;;9.90;99.90;;;;;;4987266;28;101669;-73
2023/03/26 07:25:33;;;;;;;12.75;3.28;;;9.90;99.90;;;;;;4970329;28;98540;-73
2023/03/26 07:28:40;;;;;;;12.95;2.42;;;10.10;99.90;;;;;;4972890;28;98414;-73
2023/03/26 07:31:57;;;;;;;13.88;2.55;;;10.20;99.90;;;;;;4990921;28;101741;-73
2023/03/26 07:35:29;;;;;;;10.70;2.50;;;10.20;99.90;;;;;;4958012;28;99827;-73
2023/03/26 07:38:32;;;;;;;11.55;3.15;;;10.20;99.90;;;;;;4975896;28;98898;-73
2023/03/26 07:41:39;;;;;;;9.60;2.67;;;10.20;99.90;;;;;;4968485;28;99100;-73
2023/03/26 07:44:41;;;;;;;10.40;1.98;;;10.30;99.90;;;;;;4973173;28;99541;-73
2023/03/26 07:47:26;;;;;;;12.90;2.83;;;10.50;99.90;;;;;;4973793;28;102106;-73
2023/03/26 07:50:20;;;;;;;12.30;2.20;;;10.40;99.90;;;;;;4974276;28;98603;-74
2023/03/26 07:53:08;;;;;;;13.75;2.53;;;10.60;99.90;;;;;;4974993;28;98525;-73
2023/03/26 07:56:06;;;;;;;12.45;2.50;;;10.70;99.90;;;;;;4959890;28;101457;-73
2023/03/26 07:59:21;;;;;;;14.10;2.22;;;10.70;99.90;;;;;;4924841;28;98769;-73
2023/03/26 08:02:20;;;;;;;8.77;2.60;;;10.50;99.90;;;;;;4971307;28;98615;-73
2023/03/26 08:05:19;;;;;;;6.15;2.00;;;10.40;99.90;;;;;;4990722;28;97858;-73
2023/03/26 08:08:44;;;;;;;12.23;2.38;;;10.50;99.90;;;;;;4965247;28;99119;-73
2023/03/26 08:11:43;;;;;;;6.28;1.65;;;10.50;99.90;;;;;;4974623;28;100049;-73
2023/03/26 08:14:26;;;;;;;6.95;1.88;;;10.50;99.90;;;;;;4974995;28;99250;-73
2023/03/26 08:16:59;;;;;;;13.30;2.08;;;10.60;99.90;;;;;;4974853;28;98532;-73
2023/03/26 08:19:53;;;;;;;12.13;2.07;;;10.60;99.90;;;;;;4973562;28;101974;-73
2023/03/26 08:22:37;;;;;;;8.35;2.03;;;10.80;99.90;;;;;;4975060;28;99063;-73
2023/03/26 08:25:19;;;;;;;14.07;2.10;;;10.90;99.90;;;;;;4974188;28;98591;-73
2023/03/26 08:28:05;;;;;;;8.75;1.92;;;10.90;99.90;;;;;;4973762;28;98991;-73
2023/03/26 08:30:32;;;;;;;12.20;2.13;;;11.00;99.90;;;;;;4973096;28;101706;-73
2023/03/26 08:33:11;;;;;;;11.52;2.25;;;11.00;99.90;;;;;;4989789;28;100757;-73
2023/03/26 08:35:41;;;;;;;9.60;2.50;;;11.10;99.90;;;;;;4974737;28;98504;-73
2023/03/26 08:38:09;;;;;;;11.27;2.65;;;11.10;99.90;;;;;;4989321;28;99332;-73
2023/03/26 08:40:52;;;;;;;10.07;2.35;;;11.30;99.90;;;;;;4974030;28;99990;-73
2023/03/26 08:43:46;;;;;;;5.40;1.67;;;11.50;99.70;;;;;;4989540;28;99860;-73
2023/03/26 08:46:14;;;;;;;;;;;11.50;99.80;;;;;;4973300;28;98779;-73
2023/03/26 08:48:58;;;;;;;14.82;2.40;;;11.40;99.50;;;;;;5007408;28;98689;-73
2023/03/26 08:52:01;;;;;;;10.77;2.17;;;11.60;99.90;;;;;;4989078;28;100924;-73
2023/03/26 08:54:47;;;;;;;8.82;1.98;;;11.60;99.90;;;;;;4974112;28;100826;-73
2023/03/26 08:57:35;;;;;;;11.15;2.33;;;11.40;99.90;;;;;;4989256;28;98641;-73
2023/03/26 09:00:11;;;;;;;13.23;2.08;;;11.50;99.60;;;;;;4974973;28;97707;-73
2023/03/26 09:02:41;;;;;;;6.93;2.17;;;11.40;99.10;;;;;;4972454;28;101038;-73
2023/03/26 09:05:29;;;;;;;10.15;2.00;;;11.40;99.40;;;;;;4973524;28;99133;-73
2023/03/26 09:08:30;;;;;;;6.10;1.65;;;11.40;99.10;;;;;;4974080;28;99246;-73
2023/03/26 09:11:35;;;;;;;11.32;2.28;;;11.40;99.10;;;;;;4972905;28;98652;-73
2023/03/26 09:14:53;;;;;;;11.73;2.10;;;11.50;99.30;;;;;;4988719;28;101805;-73
2023/03/26 09:18:00;;;;;;;14.65;2.70;;;11.40;99.10;;;;;;4948335;28;98919;-73
2023/03/26 09:21:06;;;;;;;7.28;1.95;;;11.50;98.90;;;;;;4913322;28;99238;-73
2023/03/26 09:24:11;;;;;;;14.45;2.78;;;11.60;99.60;;;;;;4973032;28;98984;-73
2023/03/26 09:26:54;;;;;;;9.40;2.78;;;11.70;99.80;;;;;;4963238;28;101963;-73
2023/03/26 09:29:59;;;;;;;10.98;2.53;;;11.80;99.50;;;;;;4989037;28;99068;-73
2023/03/26 09:32:53;;;;;;;7.15;2.35;;;11.90;98.80;;;;;;4989372;28;98995;-73
2023/03/26 09:35:54;;;;;;;12.73;2.50;;;11.80;98.50;;;;;;4972909;28;98420;-73
2023/03/26 09:39:08;;;;;;;12.50;2.92;;;11.80;98.60;;;;;;4972662;28;100060;-73
2023/03/26 09:41:41;;;;;;;12.10;2.15;;;12.10;98.60;;;;;;4946608;28;99970;-73
2023/03/26 09:44:29;;;;;;;8.88;2.28;;;12.30;98.40;;;;;;4988814;28;98582;-73
2023/03/26 09:47:26;;;;;;;10.05;2.55;;;12.30;98.00;;;;;;4971985;28;98565;-73
2023/03/26 09:50:11;;;;;;;13.70;2.78;;;12.20;97.90;;;;;;4988138;28;99308;-73
2023/03/26 09:52:41;;;;;;;12.77;2.53;;;12.00;98.20;;;;;;4988266;28;101877;-73
2023/03/26 09:55:27;;;;;;;11.15;2.20;;;12.10;97.80;;;;;;4988279;28;98533;-73
2023/03/26 09:58:15;;;;;;;10.60;2.45;;;12.20;97.90;;;;;;4974213;28;98158;-73
2023/03/26 10:01:11;;;;;;;14.02;3.05;;;12.30;98.00;;;;;;4988531;28;99165;-73
2023/03/26 10:04:05;;;;;;;11.63;2.53;;;12.50;98.00;;;;;;4973038;28;99037;-73
2023/03/26 10:06:43;;;;;;;9.60;2.42;;;12.40;97.60;;;;;;4988327;28;99338;-73
2023/03/26 10:09:23;;;;;;;10.65;2.33;;;12.20;97.80;;;;;;4973207;28;98439;-73
2023/03/26 10:12:19;;;;;;;6.70;1.90;;;12.30;97.70;;;;;;4988212;28;101896;-73
2023/03/26 10:15:18;;;;;;;8.75;2.15;;;12.50;97.40;;;;;;4973337;28;99003;-73
2023/03/26 10:18:08;;;;;;;12.43;2.50;;;12.50;97.00;;;;;;4956705;28;98649;-73
2023/03/26 10:21:08;;;;;;;8.65;1.73;;;12.60;97.40;;;;;;4973473;28;98554;-73
2023/03/26 10:23:55;;;;;;;6.72;1.88;;;12.60;96.80;;;;;;4971701;28;101758;-73
2023/03/26 10:26:35;;;;;;;8.45;1.92;;;12.50;96.80;;;;;;4987560;28;101526;-73
2023/03/26 10:29:17;;;;;;;8.57;2.05;;;12.50;97.00;;;;;;4973551;28;98582;-73
2023/03/26 10:32:09;;;;;;;12.10;2.67;;;12.30;96.70;;;;;;4988187;28;99023;-73
2023/03/26 10:35:16;;;;;;;9.10;2.00;;;12.10;97.40;;;;;;4972202;28;100069;-73
2023/03/26 10:38:03;;;;;;;10.52;2.30;;;12.00;97.00;;;;;;4955292;28;102265;-73
2023/03/26 10:40:41;;;;;;;7.30;1.90;;;11.90;96.80;;;;;;4972871;28;98663;-73
2023/03/26 10:43:46;;;;;;;5.97;2.00;;;11.90;97.00;;;;;;4987841;28;98581;-73
2023/03/26 10:46:55;;;;;;;11.15;2.28;;;11.90;97.50;;;;;;4972735;28;99362;-73
2023/03/26 10:49:53;;;;;;;8.18;2.70;;;11.90;96.60;;;;;;4951778;28;99540;-73
2023/03/26 10:52:33;;;;;;;13.32;2.58;;;12.00;96.90;;;;;;4973023;28;98824;-73
2023/03/26 10:55:15;;;;;;;10.15;2.58;;;12.00;96.90;;;;;;4973466;28;97792;-73
2023/03/26 10:57:51;;;;;;;13.13;2.30;;;12.10;96.20;;;;;;4972124;28;99663;-73
2023/03/26 11:00:27;;;;;;;11.68;2.35;;;12.10;96.00;;;;;;4970749;28;101629;-73
2023/03/26 11:03:05;;;;;;;10.52;2.13;;;12.10;96.20;;;;;;4972204;28;99321;-73
2023/03/26 11:05:45;;;;;;;11.23;2.38;;;12.10;96.10;;;;;;4970879;28;98534;-73
2023/03/26 11:08:35;;;;;;;7.90;1.98;;;12.10;96.40;;;;;;4972028;28;99097;-73
2023/03/26 11:11:28;;;;;;;10.23;2.42;;;12.20;96.00;;;;;;4960710;28;98951;-73
2023/03/26 11:14:11;;;;;;;7.05;1.90;;;12.30;95.90;;;;;;4987829;28;98546;-73
2023/03/26 11:17:04;;;;;;;9.93;2.63;;;12.20;95.60;;;;;;4987379;28;98491;-73
2023/03/26 11:19:40;;;;;;;6.60;1.65;;;12.00;95.40;;;;;;4970314;28;101794;-73
2023/03/26 11:22:41;;;;;;;10.98;1.98;;;12.10;95.30;;;;;;4971209;28;101899;-73
2023/03/26 11:25:24;;;;;;;11.98;1.83;;;12.20;95.40;;;;;;4970443;28;98704;-73
2023/03/26 11:28:14;;;;;;;9.77;2.20;;;12.20;95.10;;;;;;4987497;28;99039;-73
2023/03/26 11:30:52;;;;;;;11.77;2.10;;;12.30;94.90;;;;;;4986896;28;100157;-73
2023/03/26 11:33:23;;;;;;;7.57;2.08;;;12.50;95.00;;;;;;4971100;28;99804;-73
2023/03/26 11:35:54;;;;;;;8.32;2.63;;;12.80;94.60;;;;;;4971050;28;98512;-73
2023/03/26 11:38:28;;;;;;;5.80;1.92;;;12.80;93.80;;;;;;4970992;28;98600;-73
2023/03/26 11:40:57;;;;;;;7.30;2.33;;;12.80;93.30;;;;;;4985654;28;102181;-73
2023/03/26 11:43:48;;;;;;;10.75;2.13;;;12.40;93.40;;;;;;4970709;28;98880;-73
2023/03/26 11:46:19;;;;;;;10.00;2.05;;;12.40;93.70;;;;;;4970881;28;98609;-73
2023/03/26 11:48:51;;;;;;;13.85;2.88;;;12.40;94.00;;;;;;4970474;28;97955;-73
2023/03/26 11:51:33;;;;;;;10.43;2.38;;;12.30;94.10;;;;;;4971654;28;99403;-73
2023/03/26 11:54:01;;;;;;;8.52;2.05;;;12.40;94.30;;;;;;4971925;28;98971;-73
2023/03/26 11:57:07;;;;;;;9.23;1.92;;;12.40;94.70;;;;;;4986641;28;99278;-73
2023/03/26 11:59:36;;;;;;;8.25;2.15;;;12.30;94.40;;;;;;4954381;28;98574;-73
2023/03/26 12:02:34;;;;;;;8.25;1.88;;;12.10;94.50;;;;;;4970338;28;101473;-73
2023/03/26 12:05:21;;;;;;;7.18;1.55;;;12.00;94.30;;;;;;4971866;28;98908;-73
2023/03/26 12:07:58;;;;;;;9.82;2.30;;;12.10;94.40;;;;;;4987230;28;98633;-73
2023/03/26 12:10:33;;;;;;;10.05;2.30;;;12.10;94.90;;;;;;4972165;28;98531;-73
2023/03/26 12:13:25;;;;;;;11.35;3.00;;;12.20;94.30;;;;;;4970490;28;101655;-73
2023/03/26 12:15:58;;;;;;;10.57;2.53;;;12.40;94.80;;;;;;4974195;28;98997;-73
2023/03/26 12:18:27;;;;;;;12.35;2.45;;;12.40;93.60;;;;;;4975322;28;98529;-73
2023/03/26 12:21:09;;;;;;;13.32;4.18;;;12.30;93.40;;;;;;4973900;28;98631;-73
2023/03/26 12:23:55;;;;;;;13.30;4.22;;;12.30;92.90;;;;;;4989489;28;100101;-73
2023/03/26 12:26:40;;;;;;;11.45;2.58;;;12.40;93.20;;;;;;4974389;28;99878;-73
2023/03/26 12:29:15;;;;;;;17.95;4.78;;;12.60;93.00;;;;;;4975374;28;98562;-73
2023/03/26 12:31:46;;;;;;;6.20;1.60;;;12.50;92.80;;;;;;4989939;28;98541;-73
2023/03/26 12:34:16;;;;;;;8.40;2.03;;;12.30;93.20;;;;;;4974459;28;99940;-73
2023/03/26 12:36:55;;;;;;;5.55;1.65;;;12.30;93.60;;;;;;4974471;28;98969;-73
2023/03/26 12:39:38;;;;;;;4.95;1.70;;;12.00;93.50;;;;;;4975114;28;98500;-73
2023/03/26 12:42:32;;;;;;;4.72;1.67;;;11.80;93.90;;;;;;4990302;28;97840;-73
2023/03/26 12:45:26;;;;;;;7.30;1.45;;;11.70;94.10;;;;;;4983045;28;101748;-73
2023/03/26 12:47:55;;;;;;;4.82;1.58;;;11.70;94.70;;;;;;4958751;28;99010;-73
2023/03/26 12:50:53;;;;;;;8.73;1.33;;;11.70;93.70;;;;;;4969604;28;99235;-73
2023/03/26 12:53:30;;;;;;;3.95;1.27;;;11.80;93.80;;;;;;4926654;28;98589;-73
2023/03/26 12:56:18;;;;;;;6.35;1.83;;;11.70;93.50;;;;;;4953287;28;101261;-73
2023/03/26 12:58:54;;;;;;;8.55;1.77;;;11.70;94.20;;;;;;4954497;28;99087;-73
2023/03/26 13:01:37;;;;;;;10.57;2.05;;;11.70;94.30;;;;;;4955099;28;98534;-74
2023/03/26 13:04:29;;;;;;;5.80;1.80;;;11.70;93.70;;;;;;4953927;28;98572;-73
2023/03/26 13:07:19;;;;;;;7.53;2.00;;;11.80;93.80;;;;;;4954545;28;99493;-73
2023/03/26 13:10:07;;;;;;;8.10;1.58;;;11.80;93.70;;;;;;4943311;28;101737;-74
2023/03/26 13:12:39;;;;;;;5.90;1.95;;;11.70;93.10;;;;;;4953344;28;98580;-73
2023/03/26 13:15:37;;;;;;;8.13;1.65;;;11.60;93.70;;;;;;4954804;28;98488;-73
2023/03/26 13:18:20;;;;;;;9.85;1.90;;;11.60;93.60;;;;;;4952490;28;102520;-74
2023/03/26 13:21:34;;;;;;;5.55;1.70;;;11.60;93.60;;;;;;4952606;28;102443;-73
2023/03/26 13:24:08;;;;;;;8.33;2.00;;;11.70;92.50;;;;;;4894297;28;98751;-74
2023/03/26 13:27:14;;;;;;;14.30;2.42;;;11.60;93.10;;;;;;4893697;28;98688;-73
2023/03/26 13:30:16;;;;;;;8.90;2.03;;;11.70;93.60;;;;;;4941606;28;99367;-73
2023/03/26 13:32:58;;;;;;;10.05;1.90;;;11.80;93.80;;;;;;4921173;28;99023;-74
2023/03/26 13:35:25;;;;;;;4.93;1.17;;;11.70;93.00;;;;;;4969542;28;98721;-73
2023/03/26 13:38:19;;;;;;;4.68;1.90;;;11.70;92.80;;;;;;4954723;28;98368;-73
2023/03/26 13:41:17;;;;;;;5.43;1.45;;;11.60;92.30;;;;;;4953839;28;99206;-73
2023/03/26 13:44:08;;;;;;;7.70;2.03;;;11.50;92.60;;;;;;4953880;28;98934;-74
2023/03/26 13:46:45;;;;;;;5.22;1.40;;;11.40;93.10;;;;;;4968796;28;99300;-74
2023/03/26 13:49:36;;;;;;;5.97;1.63;;;11.50;93.40;;;;;;4952831;28;98525;-73
2023/03/26 13:52:18;;;;;;;7.80;1.70;;;11.50;94.30;;;;;;4946284;28;99445;-73
2023/03/26 13:55:07;;;;;;;3.55;1.30;;;11.50;94.30;;;;;;4968756;28;99032;-73